sensor_id;sensor_type;location;lat;lon;timestamp;temperature;humidity
40660;DHT22;26753;45.544;9.232;2023-03-12T00:00:32;15.00;99.90
40660;DHT22;26753;45.544;9.232;2023-03-12T00:02:58;15.00;99.90
40660;DHT22;26753;45.544;9.232;2023-03-12T00:05:23;15.00;99.90
40660;DHT22;26753;45.544;9.232;2023-03-12T00:07:50;14.80;99.90
40660;DHT22;26753;45.544;9.232;2023-03-12T00:10:18;15.00;99.90
40660;DHT22;26753;45.544;9.232;2023-03-12T00:12:44;14.90;99.90
40660;DHT22;26753;45.544;9.232;2023-03-12T00:15:10;14.90;99.90
40660;DHT22;26753;45.544;9.232;2023-03-12T00:17:35;14.90;99.90
40660;DHT22;26753;45.544;9.232;2023-03-12T00:20:01;14.60;99.90
40660;DHT22;26753;45.544;9.232;2023-03-12T00:22:26;14.70;99.90
40660;DHT22;26753;45.544;9.232;2023-03-12T00:24:52;14.60;99.90
40660;DHT22;26753;45.544;9.232;2023-03-12T00:27:22;14.70;99.90
40660;DHT22;26753;45.544;9.232;2023-03-12T00:29:47;14.50;99.90
40660;DHT22;26753;45.544;9.232;2023-03-12T00:32:13;14.60;99.90
40660;DHT22;26753;45.544;9.232;2023-03-12T00:34:39;14.50;99.90
40660;DHT22;26753;45.544;9.232;2023-03-12T00:37:05;14.50;99.90
40660;DHT22;26753;45.544;9.232;2023-03-12T00:39:32;14.50;99.90
40660;DHT22;26753;45.544;9.232;2023-03-12T00:41:58;14.50;99.90
40660;DHT22;26753;45.544;9.232;2023-03-12T00:44:24;14.40;99.90
40660;DHT22;26753;45.544;9.232;2023-03-12T00:46:49;14.40;99.90
40660;DHT22;26753;45.544;9.232;2023-03-12T00:49:15;14.50;99.90
40660;DHT22;26753;45.544;9.232;2023-03-12T00:51:41;14.30;99.90
40660;DHT22;26753;45.544;9.232;2023-03-12T00:54:06;14.30;99.90
40660;DHT22;26753;45.544;9.232;2023-03-12T00:56:32;14.30;99.90
40660;DHT22;26753;45.544;9.232;2023-03-12T00:58:58;14.30;99.90
40660;DHT22;26753;45.544;9.232;2023-03-12T01:01:23;14.30;99.90
40660;DHT22;26753;45.544;9.232;2023-03-12T01:03:49;14.30;99.90
40660;DHT22;26753;45.544;9.232;2023-03-12T01:06:16;14.20;99.90
40660;DHT22;26753;45.544;9.232;2023-03-12T01:08:42;14.40;99.90
40660;DHT22;26753;45.544;9.232;2023-03-12T01:11:11;14.20;99.90
40660;DHT22;26753;45.544;9.232;2023-03-12T01:13:36;14.10;99.90
40660;DHT22;26753;45.544;9.232;2023-03-12T01:16:02;14.20;99.90
40660;DHT22;26753;45.544;9.232;2023-03-12T01:18:27;15.60;99.90
40660;DHT22;26753;45.544;9.232;2023-03-12T01:20:53;15.10;99.90
40660;DHT22;26753;45.544;9.232;2023-03-12T01:23:18;13.90;99.90
40660;DHT22;26753;45.544;9.232;2023-03-12T01:25:44;13.80;99.90
40660;DHT22;26753;45.544;9.232;2023-03-12T01:28:11;13.90;99.90
40660;DHT22;26753;45.544;9.232;2023-03-12T01:30:37;13.90;99.90
40660;DHT22;26753;45.544;9.232;2023-03-12T01:33:02;13.90;99.90
40660;DHT22;26753;45.544;9.232;2023-03-12T01:35:28;13.80;99.90
40660;DHT22;26753;45.544;9.232;2023-03-12T01:37:53;13.90;99.90
40660;DHT22;26753;45.544;9.232;2023-03-12T01:40:20;13.90;99.90
40660;DHT22;26753;45.544;9.232;2023-03-12T01:42:53;13.70;99.90
40660;DHT22;26753;45.544;9.232;2023-03-12T01:48:03;13.90;99.90
40660;DHT22;26753;45.544;9.232;2023-03-12T01:50:31;13.80;99.90
40660;DHT22;26753;45.544;9.232;2023-03-12T01:52:56;14.20;99.90
40660;DHT22;26753;45.544;9.232;2023-03-12T01:55:22;13.80;99.90
40660;DHT22;26753;45.544;9.232;2023-03-12T01:57:49;13.80;99.90
40660;DHT22;26753;45.544;9.232;2023-03-12T02:00:24;13.70;99.90
40660;DHT22;26753;45.544;9.232;2023-03-12T02:02:51;13.80;99.90
40660;DHT22;26753;45.544;9.232;2023-03-12T02:07:43;13.70;99.90
40660;DHT22;26753;45.544;9.232;2023-03-12T02:10:09;13.70;99.90
40660;DHT22;26753;45.544;9.232;2023-03-12T02:12:35;13.60;99.90
40660;DHT22;26753;45.544;9.232;2023-03-12T02:15:00;13.60;99.90
40660;DHT22;26753;45.544;9.232;2023-03-12T02:17:26;13.60;99.90
40660;DHT22;26753;45.544;9.232;2023-03-12T02:22:27;13.60;99.90
40660;DHT22;26753;45.544;9.232;2023-03-12T02:25:03;13.60;99.90
40660;DHT22;26753;45.544;9.232;2023-03-12T02:27:31;13.90;99.90
40660;DHT22;26753;45.544;9.232;2023-03-12T02:29:57;13.50;99.90
40660;DHT22;26753;45.544;9.232;2023-03-12T02:32:25;13.40;99.90
40660;DHT22;26753;45.544;9.232;2023-03-12T02:34:51;13.00;99.90
40660;DHT22;26753;45.544;9.232;2023-03-12T02:37:17;13.40;99.90
40660;DHT22;26753;45.544;9.232;2023-03-12T02:39:43;13.40;99.90
40660;DHT22;26753;45.544;9.232;2023-03-12T02:42:10;13.40;99.90
40660;DHT22;26753;45.544;9.232;2023-03-12T02:44:36;13.30;99.90
40660;DHT22;26753;45.544;9.232;2023-03-12T02:47:02;13.20;99.90
40660;DHT22;26753;45.544;9.232;2023-03-12T02:49:28;13.00;99.90
40660;DHT22;26753;45.544;9.232;2023-03-12T02:51:54;13.30;99.90
40660;DHT22;26753;45.544;9.232;2023-03-12T02:54:20;14.00;99.90
40660;DHT22;26753;45.544;9.232;2023-03-12T02:56:46;14.30;99.90
40660;DHT22;26753;45.544;9.232;2023-03-12T02:59:14;13.40;99.90
40660;DHT22;26753;45.544;9.232;2023-03-12T03:01:40;11.40;99.90
40660;DHT22;26753;45.544;9.232;2023-03-12T03:04:06;13.30;99.90
40660;DHT22;26753;45.544;9.232;2023-03-12T03:06:32;13.30;99.90
40660;DHT22;26753;45.544;9.232;2023-03-12T03:08:58;12.50;99.90
40660;DHT22;26753;45.544;9.232;2023-03-12T03:11:24;13.30;99.90
40660;DHT22;26753;45.544;9.232;2023-03-12T03:13:50;13.30;99.90
40660;DHT22;26753;45.544;9.232;2023-03-12T03:16:16;13.30;99.90
40660;DHT22;26753;45.544;9.232;2023-03-12T03:18:41;13.30;99.90
40660;DHT22;26753;45.544;9.232;2023-03-12T03:21:07;13.40;99.90
40660;DHT22;26753;45.544;9.232;2023-03-12T03:23:33;13.20;99.90
40660;DHT22;26753;45.544;9.232;2023-03-12T03:25:59;13.20;99.90
40660;DHT22;26753;45.544;9.232;2023-03-12T03:28:26;13.10;99.90
40660;DHT22;26753;45.544;9.232;2023-03-12T03:30:53;13.20;99.90
40660;DHT22;26753;45.544;9.232;2023-03-12T03:33:19;13.10;99.90
40660;DHT22;26753;45.544;9.232;2023-03-12T03:35:47;13.20;99.90
40660;DHT22;26753;45.544;9.232;2023-03-12T03:38:13;13.10;99.90
40660;DHT22;26753;45.544;9.232;2023-03-12T03:40:39;13.00;99.90
40660;DHT22;26753;45.544;9.232;2023-03-12T03:43:05;13.00;99.90
40660;DHT22;26753;45.544;9.232;2023-03-12T03:45:30;13.00;99.90
40660;DHT22;26753;45.544;9.232;2023-03-12T03:47:56;12.80;99.90
40660;DHT22;26753;45.544;9.232;2023-03-12T03:50:22;13.10;99.90
40660;DHT22;26753;45.544;9.232;2023-03-12T03:52:47;13.00;99.90
40660;DHT22;26753;45.544;9.232;2023-03-12T03:55:13;12.90;99.90
40660;DHT22;26753;45.544;9.232;2023-03-12T03:57:38;12.70;99.90
40660;DHT22;26753;45.544;9.232;2023-03-12T04:00:04;13.50;99.90
40660;DHT22;26753;45.544;9.232;2023-03-12T04:02:33;11.70;99.90
40660;DHT22;26753;45.544;9.232;2023-03-12T04:04:59;13.20;99.90
40660;DHT22;26753;45.544;9.232;2023-03-12T04:07:26;12.60;99.90
40660;DHT22;26753;45.544;9.232;2023-03-12T04:09:52;13.10;99.90
40660;DHT22;26753;45.544;9.232;2023-03-12T04:12:18;12.70;99.90
40660;DHT22;26753;45.544;9.232;2023-03-12T04:14:43;12.80;99.90
40660;DHT22;26753;45.544;9.232;2023-03-12T04:17:09;12.60;99.90
40660;DHT22;26753;45.544;9.232;2023-03-12T04:19:34;11.30;99.90
40660;DHT22;26753;45.544;9.232;2023-03-12T04:22:03;12.30;99.90
40660;DHT22;26753;45.544;9.232;2023-03-12T04:24:28;12.90;99.90
40660;DHT22;26753;45.544;9.232;2023-03-12T04:26:54;12.50;99.90
40660;DHT22;26753;45.544;9.232;2023-03-12T04:29:19;11.70;99.90
40660;DHT22;26753;45.544;9.232;2023-03-12T04:31:45;13.00;99.90
40660;DHT22;26753;45.544;9.232;2023-03-12T04:34:11;12.50;99.90
40660;DHT22;26753;45.544;9.232;2023-03-12T04:36:37;12.20;99.90
40660;DHT22;26753;45.544;9.232;2023-03-12T04:39:05;13.10;99.90
40660;DHT22;26753;45.544;9.232;2023-03-12T04:41:32;11.30;99.90
40660;DHT22;26753;45.544;9.232;2023-03-12T04:43:57;12.00;99.90
40660;DHT22;26753;45.544;9.232;2023-03-12T04:46:26;12.40;99.90
40660;DHT22;26753;45.544;9.232;2023-03-12T04:48:54;13.00;99.90
40660;DHT22;26753;45.544;9.232;2023-03-12T04:51:20;12.70;99.90
40660;DHT22;26753;45.544;9.232;2023-03-12T04:53:46;12.10;99.90
40660;DHT22;26753;45.544;9.232;2023-03-12T04:56:11;12.50;99.90
40660;DHT22;26753;45.544;9.232;2023-03-12T04:58:37;12.50;99.90
40660;DHT22;26753;45.544;9.232;2023-03-12T05:01:03;12.50;99.90
40660;DHT22;26753;45.544;9.232;2023-03-12T05:03:32;13.00;99.90
40660;DHT22;26753;45.544;9.232;2023-03-12T05:05:58;11.90;99.90
40660;DHT22;26753;45.544;9.232;2023-03-12T05:08:23;12.90;99.90
40660;DHT22;26753;45.544;9.232;2023-03-12T05:10:49;12.00;99.90
40660;DHT22;26753;45.544;9.232;2023-03-12T05:13:20;13.20;99.90
40660;DHT22;26753;45.544;9.232;2023-03-12T05:15:46;13.40;99.90
40660;DHT22;26753;45.544;9.232;2023-03-12T05:18:13;13.10;99.90
40660;DHT22;26753;45.544;9.232;2023-03-12T05:20:38;12.70;99.90
40660;DHT22;26753;45.544;9.232;2023-03-12T05:23:04;11.80;99.90
40660;DHT22;26753;45.544;9.232;2023-03-12T05:25:30;12.90;99.90
40660;DHT22;26753;45.544;9.232;2023-03-12T05:27:55;11.60;99.90
40660;DHT22;26753;45.544;9.232;2023-03-12T05:30:21;12.20;99.90
40660;DHT22;26753;45.544;9.232;2023-03-12T05:32:47;12.70;99.90
40660;DHT22;26753;45.544;9.232;2023-03-12T05:35:13;12.00;99.90
40660;DHT22;26753;45.544;9.232;2023-03-12T05:37:38;12.00;99.90
40660;DHT22;26753;45.544;9.232;2023-03-12T05:40:08;13.40;99.90
40660;DHT22;26753;45.544;9.232;2023-03-12T05:42:34;13.50;99.90
40660;DHT22;26753;45.544;9.232;2023-03-12T05:45:09;11.60;99.90
40660;DHT22;26753;45.544;9.232;2023-03-12T05:47:35;12.30;99.90
40660;DHT22;26753;45.544;9.232;2023-03-12T05:50:00;12.10;99.90
40660;DHT22;26753;45.544;9.232;2023-03-12T05:52:26;13.10;99.90
40660;DHT22;26753;45.544;9.232;2023-03-12T05:54:52;11.90;99.90
40660;DHT22;26753;45.544;9.232;2023-03-12T05:57:17;12.20;99.90
40660;DHT22;26753;45.544;9.232;2023-03-12T05:59:43;12.80;99.90
40660;DHT22;26753;45.544;9.232;2023-03-12T06:02:08;13.40;99.90
40660;DHT22;26753;45.544;9.232;2023-03-12T06:04:34;10.70;99.90
40660;DHT22;26753;45.544;9.232;2023-03-12T06:07:00;13.80;99.90
40660;DHT22;26753;45.544;9.232;2023-03-12T06:09:25;13.20;99.90
40660;DHT22;26753;45.544;9.232;2023-03-12T06:11:51;12.20;99.90
40660;DHT22;26753;45.544;9.232;2023-03-12T06:14:16;12.90;99.90
40660;DHT22;26753;45.544;9.232;2023-03-12T06:16:42;13.30;99.90
40660;DHT22;26753;45.544;9.232;2023-03-12T06:19:09;12.70;99.90
40660;DHT22;26753;45.544;9.232;2023-03-12T06:21:38;12.40;99.90
40660;DHT22;26753;45.544;9.232;2023-03-12T06:24:04;13.50;99.90
40660;DHT22;26753;45.544;9.232;2023-03-12T06:26:30;12.70;99.90
40660;DHT22;26753;45.544;9.232;2023-03-12T06:28:56;13.20;99.90
40660;DHT22;26753;45.544;9.232;2023-03-12T06:31:24;12.50;99.90
40660;DHT22;26753;45.544;9.232;2023-03-12T06:33:53;11.70;99.90
40660;DHT22;26753;45.544;9.232;2023-03-12T06:36:19;13.50;99.90
40660;DHT22;26753;45.544;9.232;2023-03-12T06:38:44;12.70;99.90
40660;DHT22;26753;45.544;9.232;2023-03-12T06:41:11;12.80;99.90
40660;DHT22;26753;45.544;9.232;2023-03-12T06:43:37;12.70;99.90
40660;DHT22;26753;45.544;9.232;2023-03-12T06:46:03;12.30;99.90
40660;DHT22;26753;45.544;9.232;2023-03-12T06:48:29;13.20;99.90
40660;DHT22;26753;45.544;9.232;2023-03-12T06:50:57;13.00;99.90
40660;DHT22;26753;45.544;9.232;2023-03-12T06:53:24;12.50;99.90
40660;DHT22;26753;45.544;9.232;2023-03-12T06:55:50;13.60;99.90
40660;DHT22;26753;45.544;9.232;2023-03-12T06:58:16;13.60;99.90
40660;DHT22;26753;45.544;9.232;2023-03-12T07:00:42;13.50;99.90
40660;DHT22;26753;45.544;9.232;2023-03-12T07:03:07;13.40;99.90
40660;DHT22;26753;45.544;9.232;2023-03-12T07:05:33;13.50;99.90
40660;DHT22;26753;45.544;9.232;2023-03-12T07:07:59;14.50;99.90
40660;DHT22;26753;45.544;9.232;2023-03-12T07:10:24;13.80;99.90
40660;DHT22;26753;45.544;9.232;2023-03-12T07:12:53;14.20;99.90
40660;DHT22;26753;45.544;9.232;2023-03-12T07:15:19;15.20;99.90
40660;DHT22;26753;45.544;9.232;2023-03-12T07:17:45;14.60;99.90
40660;DHT22;26753;45.544;9.232;2023-03-12T07:20:10;14.40;99.90
40660;DHT22;26753;45.544;9.232;2023-03-12T07:22:36;14.70;99.90
40660;DHT22;26753;45.544;9.232;2023-03-12T07:25:02;14.40;99.90
40660;DHT22;26753;45.544;9.232;2023-03-12T07:27:29;13.30;99.90
40660;DHT22;26753;45.544;9.232;2023-03-12T07:29:54;14.20;99.90
40660;DHT22;26753;45.544;9.232;2023-03-12T07:32:20;14.10;99.90
40660;DHT22;26753;45.544;9.232;2023-03-12T07:34:46;14.50;99.90
40660;DHT22;26753;45.544;9.232;2023-03-12T07:37:11;14.70;99.90
40660;DHT22;26753;45.544;9.232;2023-03-12T07:39:37;14.10;99.90
40660;DHT22;26753;45.544;9.232;2023-03-12T07:42:02;14.30;99.90
40660;DHT22;26753;45.544;9.232;2023-03-12T07:44:28;15.20;99.90
40660;DHT22;26753;45.544;9.232;2023-03-12T07:46:53;14.30;99.90
40660;DHT22;26753;45.544;9.232;2023-03-12T07:49:19;13.40;99.90
40660;DHT22;26753;45.544;9.232;2023-03-12T07:51:45;14.60;99.90
40660;DHT22;26753;45.544;9.232;2023-03-12T07:54:11;13.40;99.90
40660;DHT22;26753;45.544;9.232;2023-03-12T07:56:36;14.40;99.90
40660;DHT22;26753;45.544;9.232;2023-03-12T07:59:02;13.00;99.90
40660;DHT22;26753;45.544;9.232;2023-03-12T08:01:27;14.70;99.90
40660;DHT22;26753;45.544;9.232;2023-03-12T08:03:57;14.00;99.90
40660;DHT22;26753;45.544;9.232;2023-03-12T08:06:25;14.80;99.90
40660;DHT22;26753;45.544;9.232;2023-03-12T08:08:51;15.60;99.90
40660;DHT22;26753;45.544;9.232;2023-03-12T08:11:16;14.90;99.90
40660;DHT22;26753;45.544;9.232;2023-03-12T08:13:42;15.00;99.90
40660;DHT22;26753;45.544;9.232;2023-03-12T08:16:08;15.00;99.90
40660;DHT22;26753;45.544;9.232;2023-03-12T08:18:33;15.00;99.90
40660;DHT22;26753;45.544;9.232;2023-03-12T08:20:59;15.10;99.90
40660;DHT22;26753;45.544;9.232;2023-03-12T08:23:25;15.00;99.90
40660;DHT22;26753;45.544;9.232;2023-03-12T08:25:51;15.00;99.90
40660;DHT22;26753;45.544;9.232;2023-03-12T08:28:17;15.10;99.90
40660;DHT22;26753;45.544;9.232;2023-03-12T08:30:52;15.20;99.90
40660;DHT22;26753;45.544;9.232;2023-03-12T08:33:18;15.20;99.90
40660;DHT22;26753;45.544;9.232;2023-03-12T08:35:44;15.30;99.90
40660;DHT22;26753;45.544;9.232;2023-03-12T08:38:09;15.30;99.90
40660;DHT22;26753;45.544;9.232;2023-03-12T08:40:35;15.40;99.90
40660;DHT22;26753;45.544;9.232;2023-03-12T08:43:01;15.40;99.90
40660;DHT22;26753;45.544;9.232;2023-03-12T08:45:26;15.30;99.90
40660;DHT22;26753;45.544;9.232;2023-03-12T08:47:52;15.50;99.90
40660;DHT22;26753;45.544;9.232;2023-03-12T08:50:17;15.60;99.90
40660;DHT22;26753;45.544;9.232;2023-03-12T08:52:44;15.60;99.90
40660;DHT22;26753;45.544;9.232;2023-03-12T08:55:10;15.70;99.90
40660;DHT22;26753;45.544;9.232;2023-03-12T08:57:36;15.60;99.90
40660;DHT22;26753;45.544;9.232;2023-03-12T09:00:03;15.80;99.90
40660;DHT22;26753;45.544;9.232;2023-03-12T09:02:39;15.70;99.90
40660;DHT22;26753;45.544;9.232;2023-03-12T09:05:05;15.60;99.90
40660;DHT22;26753;45.544;9.232;2023-03-12T09:07:30;15.80;99.90
40660;DHT22;26753;45.544;9.232;2023-03-12T09:09:56;15.80;99.90
40660;DHT22;26753;45.544;9.232;2023-03-12T09:12:22;15.90;99.90
40660;DHT22;26753;45.544;9.232;2023-03-12T09:14:48;15.80;99.90
40660;DHT22;26753;45.544;9.232;2023-03-12T09:17:22;16.00;99.90
40660;DHT22;26753;45.544;9.232;2023-03-12T09:19:48;16.10;99.90
40660;DHT22;26753;45.544;9.232;2023-03-12T09:22:13;16.20;99.90
40660;DHT22;26753;45.544;9.232;2023-03-12T09:24:39;16.20;99.90
40660;DHT22;26753;45.544;9.232;2023-03-12T09:27:05;16.40;99.90
40660;DHT22;26753;45.544;9.232;2023-03-12T09:29:30;16.30;99.90
40660;DHT22;26753;45.544;9.232;2023-03-12T09:31:57;16.50;99.90
40660;DHT22;26753;45.544;9.232;2023-03-12T09:34:22;16.50;99.90
40660;DHT22;26753;45.544;9.232;2023-03-12T09:36:48;16.60;99.90
40660;DHT22;26753;45.544;9.232;2023-03-12T09:39:15;16.70;99.90
40660;DHT22;26753;45.544;9.232;2023-03-12T09:41:42;16.80;99.90
40660;DHT22;26753;45.544;9.232;2023-03-12T09:46:42;17.00;99.90
40660;DHT22;26753;45.544;9.232;2023-03-12T09:49:43;17.10;99.90
40660;DHT22;26753;45.544;9.232;2023-03-12T09:52:01;17.20;99.90
40660;DHT22;26753;45.544;9.232;2023-03-12T09:54:37;17.30;99.90
40660;DHT22;26753;45.544;9.232;2023-03-12T09:57:09;17.40;99.90
40660;DHT22;26753;45.544;9.232;2023-03-12T09:59:35;17.40;99.90
40660;DHT22;26753;45.544;9.232;2023-03-12T10:02:02;17.60;99.90
40660;DHT22;26753;45.544;9.232;2023-03-12T10:07:34;17.70;99.90
40660;DHT22;26753;45.544;9.232;2023-03-12T10:10:09;17.80;99.90
40660;DHT22;26753;45.544;9.232;2023-03-12T10:12:43;17.80;99.90
40660;DHT22;26753;45.544;9.232;2023-03-12T10:23:21;18.20;99.90
40660;DHT22;26753;45.544;9.232;2023-03-12T10:28:40;18.40;99.90
40660;DHT22;26753;45.544;9.232;2023-03-12T10:31:11;18.60;99.90
40660;DHT22;26753;45.544;9.232;2023-03-12T10:33:48;18.50;99.90
40660;DHT22;26753;45.544;9.232;2023-03-12T10:36:26;18.70;99.90
40660;DHT22;26753;45.544;9.232;2023-03-12T10:38:53;18.70;99.90
40660;DHT22;26753;45.544;9.232;2023-03-12T10:41:26;18.70;99.90
40660;DHT22;26753;45.544;9.232;2023-03-12T10:43:56;18.80;99.90
40660;DHT22;26753;45.544;9.232;2023-03-12T10:51:54;19.30;99.90
40660;DHT22;26753;45.544;9.232;2023-03-12T10:54:21;19.30;99.90
40660;DHT22;26753;45.544;9.232;2023-03-12T10:56:48;19.40;99.40
40660;DHT22;26753;45.544;9.232;2023-03-12T10:59:19;19.50;99.00
40660;DHT22;26753;45.544;9.232;2023-03-12T11:01:46;19.50;98.90
40660;DHT22;26753;45.544;9.232;2023-03-12T11:04:25;19.30;99.00
40660;DHT22;26753;45.544;9.232;2023-03-12T11:09:35;19.60;99.40
40660;DHT22;26753;45.544;9.232;2023-03-12T11:12:02;19.90;99.00
40660;DHT22;26753;45.544;9.232;2023-03-12T11:14:48;19.90;98.50
40660;DHT22;26753;45.544;9.232;2023-03-12T11:17:24;20.00;98.30
40660;DHT22;26753;45.544;9.232;2023-03-12T11:19:50;20.20;98.10
40660;DHT22;26753;45.544;9.232;2023-03-12T11:22:26;20.30;97.40
40660;DHT22;26753;45.544;9.232;2023-03-12T11:24:59;20.40;97.60
40660;DHT22;26753;45.544;9.232;2023-03-12T11:27:29;20.50;97.10
40660;DHT22;26753;45.544;9.232;2023-03-12T11:29:56;20.80;96.90
40660;DHT22;26753;45.544;9.232;2023-03-12T11:32:24;21.00;96.30
40660;DHT22;26753;45.544;9.232;2023-03-12T11:34:54;21.00;95.70
40660;DHT22;26753;45.544;9.232;2023-03-12T11:40:08;21.40;95.30
40660;DHT22;26753;45.544;9.232;2023-03-12T11:42:40;21.20;94.90
40660;DHT22;26753;45.544;9.232;2023-03-12T11:47:59;20.80;95.10
40660;DHT22;26753;45.544;9.232;2023-03-12T11:58:12;21.20;94.60
40660;DHT22;26753;45.544;9.232;2023-03-12T12:00:48;21.40;94.10
40660;DHT22;26753;45.544;9.232;2023-03-12T12:15:45;22.30;91.80
40660;DHT22;26753;45.544;9.232;2023-03-12T12:21:13;25.70;88.70
40660;DHT22;26753;45.544;9.232;2023-03-12T12:26:32;25.50;81.80
40660;DHT22;26753;45.544;9.232;2023-03-12T12:36:36;35.40;65.00
40660;DHT22;26753;45.544;9.232;2023-03-12T12:39:03;38.20;57.80
40660;DHT22;26753;45.544;9.232;2023-03-12T12:41:34;40.10;53.20
40660;DHT22;26753;45.544;9.232;2023-03-12T12:46:35;42.20;48.20
40660;DHT22;26753;45.544;9.232;2023-03-12T12:49:09;42.80;47.10
40660;DHT22;26753;45.544;9.232;2023-03-12T12:51:40;43.80;46.30
40660;DHT22;26753;45.544;9.232;2023-03-12T12:56:50;44.70;44.80
40660;DHT22;26753;45.544;9.232;2023-03-12T13:02:02;45.20;43.50
40660;DHT22;26753;45.544;9.232;2023-03-12T13:04:35;45.30;44.30
40660;DHT22;26753;45.544;9.232;2023-03-12T13:10:03;46.20;42.80
40660;DHT22;26753;45.544;9.232;2023-03-12T13:14:45;47.10;41.70
40660;DHT22;26753;45.544;9.232;2023-03-12T13:19:46;46.30;40.50
40660;DHT22;26753;45.544;9.232;2023-03-12T13:27:37;47.40;40.80
40660;DHT22;26753;45.544;9.232;2023-03-12T13:33:13;48.00;40.90
40660;DHT22;26753;45.544;9.232;2023-03-12T13:35:39;49.30;40.40
40660;DHT22;26753;45.544;9.232;2023-03-12T13:38:32;50.20;40.20
40660;DHT22;26753;45.544;9.232;2023-03-12T13:40:54;49.90;39.10
40660;DHT22;26753;45.544;9.232;2023-03-12T13:46:21;49.20;39.30
40660;DHT22;26753;45.544;9.232;2023-03-12T13:48:46;47.80;38.90
40660;DHT22;26753;45.544;9.232;2023-03-12T13:51:16;47.80;38.80
40660;DHT22;26753;45.544;9.232;2023-03-12T13:53:49;48.70;38.90
40660;DHT22;26753;45.544;9.232;2023-03-12T13:56:18;48.60;38.80
40660;DHT22;26753;45.544;9.232;2023-03-12T13:58:49;49.40;38.60
40660;DHT22;26753;45.544;9.232;2023-03-12T14:01:19;49.20;38.70
40660;DHT22;26753;45.544;9.232;2023-03-12T14:03:52;49.40;38.80
40660;DHT22;26753;45.544;9.232;2023-03-12T14:06:26;49.80;38.70
40660;DHT22;26753;45.544;9.232;2023-03-12T14:18:54;50.80;37.80
40660;DHT22;26753;45.544;9.232;2023-03-12T14:21:20;51.00;37.50
40660;DHT22;26753;45.544;9.232;2023-03-12T14:23:48;50.10;37.30
40660;DHT22;26753;45.544;9.232;2023-03-12T14:26:18;51.50;37.90
40660;DHT22;26753;45.544;9.232;2023-03-12T14:28:51;52.20;37.60
40660;DHT22;26753;45.544;9.232;2023-03-12T14:31:20;53.00;37.10
40660;DHT22;26753;45.544;9.232;2023-03-12T14:34:05;51.30;36.60
40660;DHT22;26753;45.544;9.232;2023-03-12T14:36:43;50.70;36.90
40660;DHT22;26753;45.544;9.232;2023-03-12T14:39:32;52.20;37.30
40660;DHT22;26753;45.544;9.232;2023-03-12T14:41:59;53.00;36.60
40660;DHT22;26753;45.544;9.232;2023-03-12T14:44:26;51.60;36.60
40660;DHT22;26753;45.544;9.232;2023-03-12T14:49:21;52.60;36.80
40660;DHT22;26753;45.544;9.232;2023-03-12T14:51:46;53.10;36.70
40660;DHT22;26753;45.544;9.232;2023-03-12T14:54:16;52.50;35.80
40660;DHT22;26753;45.544;9.232;2023-03-12T14:56:43;51.70;35.50
40660;DHT22;26753;45.544;9.232;2023-03-12T14:59:19;51.50;36.10
40660;DHT22;26753;45.544;9.232;2023-03-12T15:01:46;51.90;36.50
40660;DHT22;26753;45.544;9.232;2023-03-12T15:04:13;52.10;36.40
40660;DHT22;26753;45.544;9.232;2023-03-12T15:06:47;51.90;35.70
40660;DHT22;26753;45.544;9.232;2023-03-12T15:09:17;51.80;36.30
40660;DHT22;26753;45.544;9.232;2023-03-12T15:11:43;52.40;36.20
40660;DHT22;26753;45.544;9.232;2023-03-12T15:14:14;52.40;36.10
40660;DHT22;26753;45.544;9.232;2023-03-12T15:16:41;52.60;36.00
40660;DHT22;26753;45.544;9.232;2023-03-12T15:19:17;48.50;35.00
40660;DHT22;26753;45.544;9.232;2023-03-12T15:21:44;43.90;36.40
40660;DHT22;26753;45.544;9.232;2023-03-12T15:24:10;39.90;38.10
40660;DHT22;26753;45.544;9.232;2023-03-12T15:26:37;37.40;39.60
40660;DHT22;26753;45.544;9.232;2023-03-12T15:34:06;32.10;43.70
40660;DHT22;26753;45.544;9.232;2023-03-12T15:36:33;30.40;45.10
40660;DHT22;26753;45.544;9.232;2023-03-12T15:41:44;29.00;46.70
40660;DHT22;26753;45.544;9.232;2023-03-12T15:44:20;28.60;47.20
40660;DHT22;26753;45.544;9.232;2023-03-12T15:46:47;26.90;48.90
40660;DHT22;26753;45.544;9.232;2023-03-12T15:49:47;26.40;49.90
40660;DHT22;26753;45.544;9.232;2023-03-12T15:52:38;26.10;50.30
40660;DHT22;26753;45.544;9.232;2023-03-12T15:55:04;26.10;50.80
40660;DHT22;26753;45.544;9.232;2023-03-12T15:57:32;26.00;51.00
40660;DHT22;26753;45.544;9.232;2023-03-12T16:02:46;25.70;51.60
40660;DHT22;26753;45.544;9.232;2023-03-12T16:05:11;25.70;51.70
40660;DHT22;26753;45.544;9.232;2023-03-12T16:07:37;25.60;52.00
40660;DHT22;26753;45.544;9.232;2023-03-12T16:10:03;25.00;52.70
40660;DHT22;26753;45.544;9.232;2023-03-12T16:12:29;24.50;53.40
40660;DHT22;26753;45.544;9.232;2023-03-12T16:14:54;24.60;53.50
40660;DHT22;26753;45.544;9.232;2023-03-12T16:17:21;24.60;53.70
40660;DHT22;26753;45.544;9.232;2023-03-12T16:19:47;24.70;53.80
40660;DHT22;26753;45.544;9.232;2023-03-12T16:22:12;24.70;53.80
40660;DHT22;26753;45.544;9.232;2023-03-12T16:24:38;24.60;54.40
40660;DHT22;26753;45.544;9.232;2023-03-12T16:27:03;24.40;54.50
40660;DHT22;26753;45.544;9.232;2023-03-12T16:29:32;24.10;55.00
40660;DHT22;26753;45.544;9.232;2023-03-12T16:31:58;24.10;55.20
40660;DHT22;26753;45.544;9.232;2023-03-12T16:34:24;24.00;55.50
40660;DHT22;26753;45.544;9.232;2023-03-12T16:36:50;23.80;55.60
40660;DHT22;26753;45.544;9.232;2023-03-12T16:39:16;23.80;55.70
40660;DHT22;26753;45.544;9.232;2023-03-12T16:41:41;23.70;56.00
40660;DHT22;26753;45.544;9.232;2023-03-12T16:44:07;23.40;56.60
40660;DHT22;26753;45.544;9.232;2023-03-12T16:46:37;23.30;56.90
40660;DHT22;26753;45.544;9.232;2023-03-12T16:49:03;23.20;57.10
40660;DHT22;26753;45.544;9.232;2023-03-12T16:51:28;23.10;57.30
40660;DHT22;26753;45.544;9.232;2023-03-12T16:53:54;23.10;57.40
40660;DHT22;26753;45.544;9.232;2023-03-12T16:56:22;23.00;57.90
40660;DHT22;26753;45.544;9.232;2023-03-12T16:58:48;23.00;58.10
40660;DHT22;26753;45.544;9.232;2023-03-12T17:01:15;22.80;58.70
40660;DHT22;26753;45.544;9.232;2023-03-12T17:03:41;22.60;59.00
40660;DHT22;26753;45.544;9.232;2023-03-12T17:06:15;22.40;59.10
40660;DHT22;26753;45.544;9.232;2023-03-12T17:08:41;22.40;59.60
40660;DHT22;26753;45.544;9.232;2023-03-12T17:11:12;22.20;60.10
40660;DHT22;26753;45.544;9.232;2023-03-12T17:13:38;22.10;60.10
40660;DHT22;26753;45.544;9.232;2023-03-12T17:16:03;22.00;60.60
40660;DHT22;26753;45.544;9.232;2023-03-12T17:18:29;21.90;60.90
40660;DHT22;26753;45.544;9.232;2023-03-12T17:20:54;21.80;61.80
40660;DHT22;26753;45.544;9.232;2023-03-12T17:23:20;21.70;61.30
40660;DHT22;26753;45.544;9.232;2023-03-12T17:25:46;21.60;61.40
40660;DHT22;26753;45.544;9.232;2023-03-12T17:28:12;21.60;61.70
40660;DHT22;26753;45.544;9.232;2023-03-12T17:30:39;21.30;62.00
40660;DHT22;26753;45.544;9.232;2023-03-12T17:33:06;21.20;62.50